createdAt,value
2023-03-13T00:03:46.686Z,324.24691
2023-03-13T00:08:48.186Z,315.08434
2023-03-13T00:13:49.661Z,315.08434
2023-03-13T00:18:51.160Z,312.86228
2023-03-13T00:23:52.634Z,312.86228
2023-03-13T00:28:54.273Z,312.86228
2023-03-13T00:33:56.161Z,312.86228
2023-03-13T00:38:57.784Z,312.86228
2023-03-13T00:43:59.441Z,315.08434
2023-03-13T00:49:01.144Z,315.08434
2023-03-13T00:54:02.913Z,329
2023-03-13T00:59:04.368Z,324.24691
2023-03-13T01:04:06.015Z,324.24691
2023-03-13T01:09:07.732Z,319.60976
2023-03-13T01:14:09.171Z,312.86228
2023-03-13T01:19:13.031Z,312.86228
2023-03-13T01:24:15.261Z,321.91411
2023-03-13T01:29:16.981Z,321.91411
2023-03-13T01:34:18.746Z,315.08434
2023-03-13T01:39:20.527Z,338.87179
2023-03-13T01:44:22.279Z,336.35669
2023-03-13T01:49:24.073Z,331.42138
2023-03-13T01:54:25.852Z,321.91411
2023-03-13T01:59:27.604Z,321.91411
2023-03-13T02:04:29.254Z,329
2023-03-13T02:09:30.738Z,338.87179
2023-03-13T02:14:32.231Z,344
2023-03-13T02:19:33.995Z,341.41935
2023-03-13T02:24:35.751Z,344
2023-03-13T02:29:37.513Z,349.26316
2023-03-13T02:34:39.242Z,338.87179
2023-03-13T02:39:41.041Z,344
2023-03-13T02:44:42.815Z,341.41935
2023-03-13T02:49:44.679Z,354.66667
2023-03-13T02:54:46.153Z,354.66667
2023-03-13T02:59:47.660Z,344
2023-03-13T03:04:49.118Z,351.94702
2023-03-13T03:09:50.840Z,351.94702
2023-03-13T03:14:52.444Z,346.61438
2023-03-13T03:19:54.003Z,338.87179
2023-03-13T03:24:55.496Z,344
2023-03-13T03:29:57.015Z,341.41935
2023-03-13T03:34:58.433Z,344
2023-03-13T03:39:59.929Z,344
2023-03-13T03:45:01.399Z,338.87179
2023-03-13T03:50:03.078Z,336.35669
2023-03-13T03:55:04.791Z,336.35669
2023-03-13T04:00:06.459Z,326.6087
2023-03-13T04:05:08.209Z,329
2023-03-13T04:10:09.879Z,324.24691
2023-03-13T04:15:11.602Z,315.08434
2023-03-13T04:20:13.338Z,310.66667
2023-03-13T04:25:15.087Z,319.60976
2023-03-13T04:30:18.564Z,300.06936
2023-03-13T04:35:20.473Z,300.06936
2023-03-13T04:40:22.278Z,298.02299
2023-03-13T04:45:23.995Z,306.35294
2023-03-13T04:50:25.846Z,304.23392
2023-03-13T04:55:27.635Z,306.35294
2023-03-13T05:00:29.461Z,315.08434
2023-03-13T05:05:31.258Z,306.35294
2023-03-13T05:10:33.196Z,315.08434
2023-03-13T05:15:35.080Z,319.60976
2023-03-13T05:20:36.920Z,315.08434
2023-03-13T05:25:38.701Z,302.13953
2023-03-13T05:30:40.599Z,317.33333
2023-03-13T05:35:42.429Z,317.33333
2023-03-13T05:40:44.025Z,306.35294
2023-03-13T05:45:45.584Z,319.60976
2023-03-13T05:50:47.196Z,321.91411
2023-03-13T05:55:48.801Z,351.94702
2023-03-13T06:00:50.280Z,331.42138
2023-03-13T06:05:51.792Z,329
2023-03-13T06:10:53.286Z,341.41935
2023-03-13T06:15:54.930Z,331.42138
2023-03-13T06:20:56.466Z,333.87342
2023-03-13T06:25:57.987Z,315.08434
2023-03-13T06:30:59.656Z,296
2023-03-13T06:36:01.282Z,294
2023-03-13T06:41:02.811Z,294
2023-03-13T06:46:04.618Z,284.33149
2023-03-13T06:51:06.049Z,288.13408
2023-03-13T06:56:07.615Z,290.06742
2023-03-13T07:01:09.176Z,284.33149
2023-03-13T07:06:10.811Z,304.23392
2023-03-13T07:11:12.364Z,294
2023-03-13T07:16:13.960Z,292.0226
2023-03-13T07:21:15.728Z,280.61202
2023-03-13T07:26:17.260Z,286.22222
2023-03-13T07:31:18.801Z,302.13953
2023-03-13T07:36:20.395Z,326.6087
2023-03-13T07:41:21.882Z,336.35669
2023-03-13T07:46:23.628Z,329
2023-03-13T07:51:36.882Z,329
2023-03-13T07:56:44.354Z,331.42138
2023-03-13T08:01:46.103Z,312.86228
2023-03-13T08:06:47.790Z,329
2023-03-13T08:11:49.210Z,333.87342
2023-03-13T08:16:50.736Z,324.24691
2023-03-13T08:21:52.230Z,336.35669
2023-03-13T08:26:53.849Z,336.35669
2023-03-13T08:31:55.357Z,319.60976
2023-03-13T08:36:56.780Z,349.26316
2023-03-13T08:41:58.277Z,341.41935
2023-03-13T08:46:59.753Z,338.87179
2023-03-13T08:52:01.303Z,357.42282
2023-03-13T08:57:03.273Z,354.66667
2023-03-13T09:02:05.057Z,363.04762
2023-03-13T09:07:06.920Z,360.21622
2023-03-13T09:12:15.518Z,374.76923
2023-03-13T09:17:23.227Z,351.94702
2023-03-13T09:22:25.029Z,357.42282
2023-03-13T09:27:26.833Z,377.80282
2023-03-13T09:32:28.702Z,365.91781
2023-03-13T09:37:30.441Z,344
2023-03-13T09:42:32.236Z,365.91781
2023-03-13T09:47:34.022Z,371.77778
2023-03-13T09:52:35.767Z,354.66667
2023-03-13T09:57:37.520Z,371.77778
2023-03-13T10:02:39.294Z,384
2023-03-13T10:07:41.113Z,0
2023-03-13T10:12:42.954Z,0
2023-03-13T10:17:44.761Z,0
2023-03-13T10:22:46.528Z,0
2023-03-13T10:27:50.701Z,0
2023-03-13T10:32:52.662Z,0
2023-03-13T10:37:54.216Z,0
2023-03-13T10:42:56.020Z,0
2023-03-13T10:47:57.570Z,0
2023-03-13T10:52:59.336Z,414.22901
2023-03-13T10:58:01.149Z,0
2023-03-13T11:03:03.089Z,0
2023-03-13T11:08:04.984Z,0
2023-03-13T11:13:06.782Z,407.15789
2023-03-13T11:18:08.505Z,410.66667
2023-03-13T11:23:10.506Z,0
2023-03-13T11:28:12.333Z,0
2023-03-13T11:33:14.090Z,0
2023-03-13T11:38:15.867Z,0
2023-03-13T11:43:25.098Z,0
2023-03-13T11:48:27.599Z,0
2023-03-13T11:53:29.081Z,0
2023-03-13T11:58:30.679Z,396.94118
2023-03-13T12:03:32.252Z,403.70149
2023-03-13T12:08:33.914Z,440.77419
2023-03-13T12:13:35.365Z,417.84615
2023-03-13T12:18:36.861Z,0
2023-03-13T12:23:38.361Z,0
2023-03-13T12:28:39.925Z,0
2023-03-13T12:33:41.423Z,410.66667
2023-03-13T12:38:42.909Z,0
2023-03-13T12:43:49.697Z,0
2023-03-13T12:48:56.274Z,0
2023-03-13T12:53:58.517Z,0
2023-03-13T12:59:00.122Z,0
2023-03-13T13:04:01.670Z,0
2023-03-13T13:09:03.377Z,0
2023-03-13T13:14:05.246Z,0
2023-03-13T13:19:06.973Z,0
2023-03-13T13:24:09.308Z,0
2023-03-13T13:29:11.107Z,0
2023-03-13T13:34:12.888Z,0
2023-03-13T13:39:14.627Z,0
2023-03-13T13:44:16.449Z,0
2023-03-13T13:49:18.308Z,0
2023-03-13T13:54:20.380Z,475.03448
2023-03-13T13:59:21.897Z,0
2023-03-13T14:04:23.659Z,0
2023-03-13T14:09:25.426Z,0
2023-03-13T14:14:27.282Z,0
2023-03-13T14:19:29.029Z,0
2023-03-13T14:24:30.806Z,0
2023-03-13T14:29:32.625Z,0
2023-03-13T14:34:34.398Z,0
2023-03-13T14:39:36.198Z,0
2023-03-13T14:44:37.919Z,0
2023-03-13T14:49:39.664Z,0
2023-03-13T14:54:41.184Z,0
2023-03-13T14:59:42.832Z,0
2023-03-13T15:04:44.691Z,0
2023-03-13T15:09:46.497Z,0
2023-03-13T15:14:48.355Z,0
2023-03-13T15:19:49.917Z,0
2023-03-13T15:25:05.259Z,0
2023-03-13T15:30:07.905Z,0
2023-03-13T15:35:09.448Z,0
2023-03-13T15:40:11.014Z,0
2023-03-13T15:45:12.466Z,0
2023-03-13T15:50:13.994Z,0
2023-03-13T15:55:15.552Z,0
2023-03-13T16:00:17.378Z,0
2023-03-13T16:05:19.019Z,414.22901
2023-03-13T16:10:23.115Z,414.22901
2023-03-13T16:15:26.165Z,407.15789
2023-03-13T16:20:27.685Z,357.42282
2023-03-13T16:25:29.189Z,371.77778
2023-03-13T16:30:30.640Z,403.70149
2023-03-13T16:35:32.208Z,360.21622
2023-03-13T16:40:33.938Z,380.87943
2023-03-13T16:45:35.415Z,344
2023-03-13T16:50:36.992Z,326.6087
2023-03-13T16:55:38.715Z,351.94702
2023-03-13T17:00:40.510Z,354.66667
2023-03-13T17:05:42.413Z,338.87179
2023-03-13T17:10:44.197Z,346.61438
2023-03-13T17:15:46.137Z,357.42282
2023-03-13T17:20:47.947Z,351.94702
2023-03-13T17:25:49.732Z,351.94702
2023-03-13T17:30:51.218Z,338.87179
2023-03-13T17:35:52.804Z,344
2023-03-13T17:40:54.311Z,341.41935
2023-03-13T17:45:56.667Z,333.87342
2023-03-13T17:50:58.230Z,338.87179
2023-03-13T17:55:59.711Z,336.35669
2023-03-13T18:01:01.336Z,329
2023-03-13T18:06:03.064Z,333.87342
2023-03-13T18:11:04.905Z,336.35669
2023-03-13T18:16:06.640Z,331.42138
2023-03-13T18:21:08.264Z,329
2023-03-13T18:26:09.984Z,331.42138
2023-03-13T18:31:12.116Z,333.87342
2023-03-13T18:36:13.707Z,329
2023-03-13T18:41:15.272Z,329
2023-03-13T18:46:16.968Z,319.60976
2023-03-13T18:51:18.467Z,321.91411
2023-03-13T18:56:20.014Z,324.24691
2023-03-13T19:01:21.613Z,324.24691
2023-03-13T19:06:23.234Z,326.6087
2023-03-13T19:11:24.658Z,319.60976
2023-03-13T19:16:26.236Z,317.33333
2023-03-13T19:21:27.715Z,312.86228
2023-03-13T19:26:29.410Z,306.35294
2023-03-13T19:31:31.064Z,302.13953
2023-03-13T19:36:32.596Z,306.35294
2023-03-13T19:41:34.101Z,310.66667
2023-03-13T19:46:35.687Z,306.35294
2023-03-13T19:51:37.204Z,310.66667
2023-03-13T19:56:38.749Z,302.13953
2023-03-13T20:01:40.469Z,306.35294
2023-03-13T20:06:41.955Z,306.35294
2023-03-13T20:11:43.489Z,308.49704
2023-03-13T20:16:45.173Z,317.33333
2023-03-13T20:21:46.815Z,310.66667
2023-03-13T20:26:48.298Z,310.66667
2023-03-13T20:31:51.748Z,302.13953
2023-03-13T20:36:54.466Z,302.13953
2023-03-13T20:46:56.413Z,312.86228
2023-03-13T20:51:57.936Z,315.08434
2023-03-13T20:56:59.455Z,310.66667
2023-03-13T21:02:01.107Z,310.66667
2023-03-13T21:07:02.646Z,308.49704
2023-03-13T21:12:04.158Z,310.66667
2023-03-13T21:17:05.732Z,308.49704
2023-03-13T21:22:07.271Z,302.13953
2023-03-13T21:27:09.033Z,300.06936
2023-03-13T21:32:10.810Z,302.13953
2023-03-13T21:37:12.278Z,298.02299
2023-03-13T21:42:14.078Z,294
2023-03-13T21:47:15.841Z,290.06742
2023-03-13T21:52:17.568Z,282.46154
2023-03-13T21:57:19.329Z,282.46154
2023-03-13T22:02:21.116Z,280.61202
2023-03-13T22:07:22.690Z,278.78261
2023-03-13T22:12:24.185Z,269.92593
2023-03-13T22:17:25.689Z,268.21053
2023-03-13T22:22:27.166Z,271.65957
2023-03-13T22:27:28.918Z,280.61202
2023-03-13T22:32:30.789Z,284.33149
2023-03-13T22:37:32.570Z,278.78261
2023-03-13T22:42:34.340Z,275.1828
2023-03-13T22:47:36.127Z,271.65957
2023-03-13T22:52:37.577Z,271.65957
2023-03-13T22:57:39.091Z,269.92593
2023-03-13T23:02:40.554Z,271.65957
2023-03-13T23:07:42.113Z,275.1828
2023-03-13T23:12:43.607Z,284.33149
2023-03-13T23:17:45.456Z,288.13408
2023-03-13T23:22:47.158Z,288.13408
2023-03-13T23:27:48.964Z,284.33149
2023-03-13T23:32:50.901Z,284.33149
2023-03-13T23:37:52.510Z,286.22222
2023-03-13T23:42:54.017Z,284.33149
2023-03-13T23:47:55.922Z,282.46154
2023-03-13T23:52:57.403Z,282.46154
2023-03-13T23:57:58.836Z,284.33149
